Página principal
METAR-TAF:

METAR-TAF

Aeroportos :

Aeroporto Internacional de Bonriki

Tarawa, Kiribati

latitude: 01-21N, longitude: 172-55E, altura: 2 m

Observação actual do tempo

O boletim foi feito há 26 minutos, às 00:00 UTC
Vento 13 kt de es-nordeste
Temperatura 31°C
Humidade 75%
Pressão 1009 hPa
Visibilidade 10 km ou mais
Nuvens dispersasa uma altura de 2000 ft

METAR: NGTA 260000Z 07013KT 9999 SCT020 31/26 Q1009

Hora: 14:26 (00:26 UTC)

Previsão

O boletim foi feito há 54 minutos, às 23:32 UTC
Previsão válida de 26 às 00 UTC a 26 às 24 UTC
Vento 12 kt de este
Visibilidade 10 km ou mais
Nuvens dispersasa uma altura de 2000 ft

TAF: NGTA 252332Z 2600/2624 09012KT 9999 SCT020

Observações e previsões do tempo de mais de 4000 aeroportos (mensagens METAR e TAF).

As estações disponíveis são os pontos amarelos e vermelhos sobre o mapa.

Mova o rato sobre o mapa para ver o nome da estação.

Depois clique no ponto para visualizar as observações e previsões meteorológicas.

Para alterar o mapa : clique nos botões verdes com uma cruz preta para aumentar o zoom; no botão verde com uma pitada de zoom; ou nas setas verdes para mapas adjacentes.


METAR-TAF: